Niles, MI (49121)

10:19 AM EDT on August 31, 2015 (GMT -0400)
APRSWXNET | | Change Station
CLOSE
Current Station
Personal Weather Station
Location: Niles, MI
Elevation: 692 ft
Nearby Weather Stations

Elev 692 ft 41.83 °N, 86.25 °W | Updated 3 hours ago

Fog
Fog
62 °F
Feels Like 62 °F
N
0
Wind Variable Wind from South
Gusts 0.0 mph

Today
High -- | Low -- °F
--% Chance of Precip.
Yesterday
High -- | Low -- °F
Precip. -- in
7:09 AM 8:20 PM
Waning Gibbous, 95% visible
Pressure 30.09 in
Visibility 0.5 miles
Clouds Overcast 200 ft
Dew Point 61 °F
Humidity 98%
Rainfall in
Snow Depth Not available.
UV 1 out of 12
Pollen 10.40 out of 12
Air Quality Not available.
Flu Activity Not available.
METAR KSBN 311354Z 21004KT 1/2SM R27L/P6000FT FG OVC002 20/19 A3010 RMK AO2 SLP190 T02000194
Pressure 30.09 in
Visibility 0.5 miles
Clouds Overcast 200 ft
Dew Point 61 °F
Humidity 98%
Rainfall in
Snow Depth Not available.
UV 1 out of 12
Pollen 10.40 out of 12
Air Quality Not available.
Flu Activity Not available.
METAR KSBN 311354Z 21004KT 1/2SM R27L/P6000FT FG OVC002 20/19 A3010 RMK AO2 SLP190 T02000194

10-Day Weather Forecast

×

Almanac

Astronomy

Aug. 31, 2015 Rise Set
Actual Time
Civil Twilight
Nautical Twilight
Astronomical Twilight
Moon
Length of Visible Light
Length of Day
Tomorrow will be .
, % of the Moon is Illuminated

Today's Extremes

State Highs State Lows

Community

WunderPhotos

Upload Photos

1,851,244 photos uploaded!

WunderBlogs® & News

Nearby

Air Quality

  Air Quality AQ Index Pollutant
Not available.

Snow Depth

Station Depth Elevation

Earthquake Activity

City Distance Mag. Time & Date
Minimum magnitude displayed is 2.5.

Coastal Water Temperatures

Place Temperature

Stations

Nearby Weather Stations

Station Location Temp. Windchill Dew Point Humidity Wind Precip. Elev Updated Type